Terminal Aerodrome Forecast
Issued by NWS Shreveport, LA

Home | Current Version | Previous Version | Text Only | Print | Product List | Glossary On
Versions: 1 2 3 4 5 6 7 8 9 10 11 12 13 14 15
000
FTUS44 KSHV 230520
TAFLFK
TAF
KLFK 230520Z 2306/2406 14004KT P6SM SKC
     FM230800 00000KT P6SM SKC
      TEMPO 2309/2313 6SM BR
     FM231400 33004KT P6SM FEW040 FEW250
     FM231800 04005KT P6SM VCTS BKN050CB BKN250
     FM240300 06004KT P6SM BKN050 BKN250=

USA.gov is the U.S. government's official web portal to all federal, state and local government web resources and services.